sensor_id;sensor_type;location;lat;lon;timestamp;P1;durP1;ratioP1;P2;durP2;ratioP2
72517;SDS011;60540;51.178;6.738;2023-11-21T00:01:03;9.20;;;3.75;;
72517;SDS011;60540;51.178;6.738;2023-11-21T00:03:38;13.80;;;4.90;;
72517;SDS011;60540;51.178;6.738;2023-11-21T00:06:04;14.90;;;4.65;;
72517;SDS011;60540;51.178;6.738;2023-11-21T00:08:34;9.90;;;4.10;;
72517;SDS011;60540;51.178;6.738;2023-11-21T00:11:00;6.78;;;3.40;;
72517;SDS011;60540;51.178;6.738;2023-11-21T00:13:26;7.70;;;3.88;;
72517;SDS011;60540;51.178;6.738;2023-11-21T00:15:52;6.88;;;3.08;;
72517;SDS011;60540;51.178;6.738;2023-11-21T00:18:18;9.73;;;3.35;;
72517;SDS011;60540;51.178;6.738;2023-11-21T00:20:44;8.38;;;3.65;;
72517;SDS011;60540;51.178;6.738;2023-11-21T00:23:22;6.88;;;3.20;;
72517;SDS011;60540;51.178;6.738;2023-11-21T00:25:48;9.50;;;3.67;;
72517;SDS011;60540;51.178;6.738;2023-11-21T00:28:13;12.43;;;3.67;;
72517;SDS011;60540;51.178;6.738;2023-11-21T00:30:39;9.05;;;3.92;;
72517;SDS011;60540;51.178;6.738;2023-11-21T00:33:05;7.57;;;4.07;;
72517;SDS011;60540;51.178;6.738;2023-11-21T00:35:31;7.30;;;3.72;;
72517;SDS011;60540;51.178;6.738;2023-11-21T00:37:56;6.95;;;3.55;;
72517;SDS011;60540;51.178;6.738;2023-11-21T00:40:23;10.68;;;4.00;;
72517;SDS011;60540;51.178;6.738;2023-11-21T00:42:48;7.00;;;3.50;;
72517;SDS011;60540;51.178;6.738;2023-11-21T00:45:14;9.02;;;4.00;;
72517;SDS011;60540;51.178;6.738;2023-11-21T00:47:40;9.75;;;4.13;;
72517;SDS011;60540;51.178;6.738;2023-11-21T00:50:06;8.05;;;4.13;;
72517;SDS011;60540;51.178;6.738;2023-11-21T00:52:32;11.15;;;4.22;;
72517;SDS011;60540;51.178;6.738;2023-11-21T00:54:58;8.90;;;3.88;;
72517;SDS011;60540;51.178;6.738;2023-11-21T00:57:28;8.43;;;4.60;;
72517;SDS011;60540;51.178;6.738;2023-11-21T00:59:53;7.68;;;3.92;;
72517;SDS011;60540;51.178;6.738;2023-11-21T01:02:20;10.75;;;4.03;;
72517;SDS011;60540;51.178;6.738;2023-11-21T01:04:45;9.85;;;4.32;;
72517;SDS011;60540;51.178;6.738;2023-11-21T01:07:13;8.23;;;4.60;;
72517;SDS011;60540;51.178;6.738;2023-11-21T01:09:39;9.88;;;4.57;;
72517;SDS011;60540;51.178;6.738;2023-11-21T01:12:04;9.95;;;4.38;;
72517;SDS011;60540;51.178;6.738;2023-11-21T01:14:30;10.35;;;4.82;;
72517;SDS011;60540;51.178;6.738;2023-11-21T01:16:56;11.23;;;5.80;;
72517;SDS011;60540;51.178;6.738;2023-11-21T01:19:22;9.63;;;5.03;;
72517;SDS011;60540;51.178;6.738;2023-11-21T01:21:47;12.70;;;4.97;;
72517;SDS011;60540;51.178;6.738;2023-11-21T01:24:13;10.27;;;4.40;;
72517;SDS011;60540;51.178;6.738;2023-11-21T01:26:39;12.50;;;5.15;;
72517;SDS011;60540;51.178;6.738;2023-11-21T01:29:05;9.98;;;4.78;;
72517;SDS011;60540;51.178;6.738;2023-11-21T01:31:30;11.45;;;5.45;;
72517;SDS011;60540;51.178;6.738;2023-11-21T01:33:57;10.07;;;4.65;;
72517;SDS011;60540;51.178;6.738;2023-11-21T01:36:22;8.45;;;4.65;;
72517;SDS011;60540;51.178;6.738;2023-11-21T01:38:48;9.75;;;5.20;;
72517;SDS011;60540;51.178;6.738;2023-11-21T01:41:14;11.63;;;4.80;;
72517;SDS011;60540;51.178;6.738;2023-11-21T01:43:40;10.02;;;4.63;;
72517;SDS011;60540;51.178;6.738;2023-11-21T01:46:06;10.05;;;4.78;;
72517;SDS011;60540;51.178;6.738;2023-11-21T01:48:34;11.18;;;4.85;;
72517;SDS011;60540;51.178;6.738;2023-11-21T01:51:00;9.93;;;4.78;;
72517;SDS011;60540;51.178;6.738;2023-11-21T01:53:26;9.73;;;4.80;;
72517;SDS011;60540;51.178;6.738;2023-11-21T01:55:52;9.07;;;4.60;;
72517;SDS011;60540;51.178;6.738;2023-11-21T01:58:19;9.32;;;4.93;;
72517;SDS011;60540;51.178;6.738;2023-11-21T02:00:45;10.18;;;5.15;;
72517;SDS011;60540;51.178;6.738;2023-11-21T02:03:11;11.27;;;5.38;;
72517;SDS011;60540;51.178;6.738;2023-11-21T02:05:37;9.15;;;4.63;;
72517;SDS011;60540;51.178;6.738;2023-11-21T02:08:03;9.30;;;4.05;;
72517;SDS011;60540;51.178;6.738;2023-11-21T02:10:30;11.77;;;5.22;;
72517;SDS011;60540;51.178;6.738;2023-11-21T02:12:56;10.10;;;4.70;;
72517;SDS011;60540;51.178;6.738;2023-11-21T02:17:54;11.57;;;4.78;;
72517;SDS011;60540;51.178;6.738;2023-11-21T02:20:21;11.40;;;5.43;;
72517;SDS011;60540;51.178;6.738;2023-11-21T02:22:51;12.38;;;5.00;;
72517;SDS011;60540;51.178;6.738;2023-11-21T02:25:24;9.77;;;4.80;;
72517;SDS011;60540;51.178;6.738;2023-11-21T02:27:51;10.30;;;5.03;;
72517;SDS011;60540;51.178;6.738;2023-11-21T02:30:16;10.40;;;5.32;;
72517;SDS011;60540;51.178;6.738;2023-11-21T02:32:42;8.27;;;4.68;;
72517;SDS011;60540;51.178;6.738;2023-11-21T02:35:08;11.73;;;5.32;;
72517;SDS011;60540;51.178;6.738;2023-11-21T02:37:34;11.20;;;5.32;;
72517;SDS011;60540;51.178;6.738;2023-11-21T02:40:01;9.02;;;4.07;;
72517;SDS011;60540;51.178;6.738;2023-11-21T02:42:29;9.30;;;4.80;;
72517;SDS011;60540;51.178;6.738;2023-11-21T02:44:55;9.98;;;5.50;;
72517;SDS011;60540;51.178;6.738;2023-11-21T02:47:22;9.63;;;4.88;;
72517;SDS011;60540;51.178;6.738;2023-11-21T02:49:48;11.65;;;5.82;;
72517;SDS011;60540;51.178;6.738;2023-11-21T02:52:15;13.38;;;6.00;;
72517;SDS011;60540;51.178;6.738;2023-11-21T02:54:41;10.32;;;5.55;;
72517;SDS011;60540;51.178;6.738;2023-11-21T02:57:08;16.13;;;5.70;;
72517;SDS011;60540;51.178;6.738;2023-11-21T02:59:33;9.63;;;5.68;;
72517;SDS011;60540;51.178;6.738;2023-11-21T03:02:00;10.93;;;5.13;;
72517;SDS011;60540;51.178;6.738;2023-11-21T03:04:26;12.13;;;6.57;;
72517;SDS011;60540;51.178;6.738;2023-11-21T03:06:52;14.57;;;7.65;;
72517;SDS011;60540;51.178;6.738;2023-11-21T03:09:17;13.15;;;7.20;;
72517;SDS011;60540;51.178;6.738;2023-11-21T03:11:43;10.45;;;6.57;;
72517;SDS011;60540;51.178;6.738;2023-11-21T03:14:09;14.65;;;7.13;;
72517;SDS011;60540;51.178;6.738;2023-11-21T03:16:36;13.32;;;5.95;;
72517;SDS011;60540;51.178;6.738;2023-11-21T03:19:03;12.10;;;6.80;;
72517;SDS011;60540;51.178;6.738;2023-11-21T03:21:30;14.38;;;6.93;;
72517;SDS011;60540;51.178;6.738;2023-11-21T03:23:56;12.35;;;6.57;;
72517;SDS011;60540;51.178;6.738;2023-11-21T03:26:22;13.13;;;7.07;;
72517;SDS011;60540;51.178;6.738;2023-11-21T03:28:47;13.60;;;7.00;;
72517;SDS011;60540;51.178;6.738;2023-11-21T03:31:13;16.98;;;6.93;;
72517;SDS011;60540;51.178;6.738;2023-11-21T03:33:41;17.45;;;7.28;;
72517;SDS011;60540;51.178;6.738;2023-11-21T03:36:07;20.77;;;7.28;;
72517;SDS011;60540;51.178;6.738;2023-11-21T03:38:33;12.80;;;7.10;;
72517;SDS011;60540;51.178;6.738;2023-11-21T03:40:59;14.73;;;6.82;;
72517;SDS011;60540;51.178;6.738;2023-11-21T03:43:24;12.82;;;6.60;;
72517;SDS011;60540;51.178;6.738;2023-11-21T03:45:50;13.80;;;6.68;;
72517;SDS011;60540;51.178;6.738;2023-11-21T03:48:16;12.85;;;6.72;;
72517;SDS011;60540;51.178;6.738;2023-11-21T03:50:42;14.07;;;6.97;;
72517;SDS011;60540;51.178;6.738;2023-11-21T03:53:07;10.50;;;6.20;;
72517;SDS011;60540;51.178;6.738;2023-11-21T03:55:33;13.95;;;6.82;;
72517;SDS011;60540;51.178;6.738;2023-11-21T03:57:59;12.75;;;7.03;;
72517;SDS011;60540;51.178;6.738;2023-11-21T04:00:25;14.70;;;6.85;;
72517;SDS011;60540;51.178;6.738;2023-11-21T04:02:52;17.63;;;7.63;;
72517;SDS011;60540;51.178;6.738;2023-11-21T04:05:19;12.10;;;6.57;;
72517;SDS011;60540;51.178;6.738;2023-11-21T04:07:45;13.75;;;7.15;;
72517;SDS011;60540;51.178;6.738;2023-11-21T04:10:11;14.23;;;7.35;;
72517;SDS011;60540;51.178;6.738;2023-11-21T04:12:38;16.15;;;7.40;;
72517;SDS011;60540;51.178;6.738;2023-11-21T04:15:04;12.73;;;7.32;;
72517;SDS011;60540;51.178;6.738;2023-11-21T04:17:30;17.92;;;7.43;;
72517;SDS011;60540;51.178;6.738;2023-11-21T04:19:56;13.40;;;7.03;;
72517;SDS011;60540;51.178;6.738;2023-11-21T04:22:21;17.45;;;7.80;;
72517;SDS011;60540;51.178;6.738;2023-11-21T04:24:47;14.70;;;7.57;;
72517;SDS011;60540;51.178;6.738;2023-11-21T04:27:14;16.55;;;8.15;;
72517;SDS011;60540;51.178;6.738;2023-11-21T04:29:40;15.63;;;8.32;;
72517;SDS011;60540;51.178;6.738;2023-11-21T04:32:06;13.57;;;7.43;;
72517;SDS011;60540;51.178;6.738;2023-11-21T04:34:33;15.85;;;8.00;;
72517;SDS011;60540;51.178;6.738;2023-11-21T04:37:00;16.98;;;8.00;;
72517;SDS011;60540;51.178;6.738;2023-11-21T04:39:26;12.88;;;7.07;;
72517;SDS011;60540;51.178;6.738;2023-11-21T04:41:52;17.08;;;8.27;;
72517;SDS011;60540;51.178;6.738;2023-11-21T04:44:18;17.30;;;8.55;;
72517;SDS011;60540;51.178;6.738;2023-11-21T04:46:43;17.13;;;8.18;;
72517;SDS011;60540;51.178;6.738;2023-11-21T04:49:09;15.60;;;8.63;;
72517;SDS011;60540;51.178;6.738;2023-11-21T04:51:36;18.73;;;10.07;;
72517;SDS011;60540;51.178;6.738;2023-11-21T04:54:02;16.00;;;8.00;;
72517;SDS011;60540;51.178;6.738;2023-11-21T04:56:28;17.98;;;7.72;;
72517;SDS011;60540;51.178;6.738;2023-11-21T04:58:54;14.18;;;7.53;;
72517;SDS011;60540;51.178;6.738;2023-11-21T05:01:19;16.38;;;8.32;;
72517;SDS011;60540;51.178;6.738;2023-11-21T05:03:45;17.30;;;7.70;;
72517;SDS011;60540;51.178;6.738;2023-11-21T05:06:12;14.27;;;7.72;;
72517;SDS011;60540;51.178;6.738;2023-11-21T05:11:05;18.23;;;7.68;;
72517;SDS011;60540;51.178;6.738;2023-11-21T05:13:36;18.02;;;7.88;;
72517;SDS011;60540;51.178;6.738;2023-11-21T05:16:02;16.15;;;7.32;;
72517;SDS011;60540;51.178;6.738;2023-11-21T05:18:31;17.25;;;8.45;;
72517;SDS011;60540;51.178;6.738;2023-11-21T05:20:57;16.30;;;9.32;;
72517;SDS011;60540;51.178;6.738;2023-11-21T05:23:23;15.80;;;7.45;;
72517;SDS011;60540;51.178;6.738;2023-11-21T05:25:50;18.08;;;8.45;;
72517;SDS011;60540;51.178;6.738;2023-11-21T05:28:16;15.85;;;7.47;;
72517;SDS011;60540;51.178;6.738;2023-11-21T05:30:41;14.23;;;7.88;;
72517;SDS011;60540;51.178;6.738;2023-11-21T05:33:07;16.27;;;7.78;;
72517;SDS011;60540;51.178;6.738;2023-11-21T05:35:33;16.75;;;8.00;;
72517;SDS011;60540;51.178;6.738;2023-11-21T05:37:59;14.82;;;7.90;;
72517;SDS011;60540;51.178;6.738;2023-11-21T05:40:24;16.35;;;7.60;;
72517;SDS011;60540;51.178;6.738;2023-11-21T05:42:56;17.48;;;7.75;;
72517;SDS011;60540;51.178;6.738;2023-11-21T05:45:21;17.73;;;7.80;;
72517;SDS011;60540;51.178;6.738;2023-11-21T05:47:47;15.02;;;7.10;;
72517;SDS011;60540;51.178;6.738;2023-11-21T05:50:14;15.35;;;7.60;;
72517;SDS011;60540;51.178;6.738;2023-11-21T05:52:41;16.35;;;7.35;;
72517;SDS011;60540;51.178;6.738;2023-11-21T05:55:07;16.92;;;8.35;;
72517;SDS011;60540;51.178;6.738;2023-11-21T05:57:34;16.27;;;7.50;;
72517;SDS011;60540;51.178;6.738;2023-11-21T06:00:04;19.65;;;7.68;;
72517;SDS011;60540;51.178;6.738;2023-11-21T06:02:37;14.77;;;7.18;;
72517;SDS011;60540;51.178;6.738;2023-11-21T06:05:04;16.15;;;7.35;;
72517;SDS011;60540;51.178;6.738;2023-11-21T06:07:31;15.75;;;7.60;;
72517;SDS011;60540;51.178;6.738;2023-11-21T06:09:57;17.75;;;8.32;;
72517;SDS011;60540;51.178;6.738;2023-11-21T06:12:22;16.92;;;7.82;;
72517;SDS011;60540;51.178;6.738;2023-11-21T06:14:48;15.57;;;7.50;;
72517;SDS011;60540;51.178;6.738;2023-11-21T06:17:14;19.88;;;9.10;;
72517;SDS011;60540;51.178;6.738;2023-11-21T06:19:40;20.00;;;8.68;;
72517;SDS011;60540;51.178;6.738;2023-11-21T06:22:05;17.63;;;9.50;;
72517;SDS011;60540;51.178;6.738;2023-11-21T06:24:31;20.60;;;9.23;;
72517;SDS011;60540;51.178;6.738;2023-11-21T06:26:57;15.98;;;8.20;;
72517;SDS011;60540;51.178;6.738;2023-11-21T06:29:22;21.50;;;8.45;;
72517;SDS011;60540;51.178;6.738;2023-11-21T06:31:49;20.35;;;9.45;;
72517;SDS011;60540;51.178;6.738;2023-11-21T06:34:14;19.60;;;8.90;;
72517;SDS011;60540;51.178;6.738;2023-11-21T06:36:40;18.65;;;8.93;;
72517;SDS011;60540;51.178;6.738;2023-11-21T06:39:06;20.25;;;9.13;;
72517;SDS011;60540;51.178;6.738;2023-11-21T06:41:33;20.77;;;9.50;;
72517;SDS011;60540;51.178;6.738;2023-11-21T06:43:59;22.17;;;9.43;;
72517;SDS011;60540;51.178;6.738;2023-11-21T06:46:25;21.80;;;9.23;;
72517;SDS011;60540;51.178;6.738;2023-11-21T06:48:50;24.85;;;10.50;;
72517;SDS011;60540;51.178;6.738;2023-11-21T06:51:16;22.50;;;9.32;;
72517;SDS011;60540;51.178;6.738;2023-11-21T06:53:42;23.40;;;9.30;;
72517;SDS011;60540;51.178;6.738;2023-11-21T06:56:17;22.95;;;9.55;;
72517;SDS011;60540;51.178;6.738;2023-11-21T06:58:44;23.85;;;9.80;;
72517;SDS011;60540;51.178;6.738;2023-11-21T07:01:11;24.55;;;10.13;;
72517;SDS011;60540;51.178;6.738;2023-11-21T07:03:41;23.10;;;9.93;;
72517;SDS011;60540;51.178;6.738;2023-11-21T07:06:08;21.55;;;9.75;;
72517;SDS011;60540;51.178;6.738;2023-11-21T07:08:36;20.20;;;8.85;;
72517;SDS011;60540;51.178;6.738;2023-11-21T07:11:04;23.48;;;10.77;;
72517;SDS011;60540;51.178;6.738;2023-11-21T07:13:30;23.90;;;9.75;;
72517;SDS011;60540;51.178;6.738;2023-11-21T07:15:56;22.67;;;11.13;;
72517;SDS011;60540;51.178;6.738;2023-11-21T07:18:23;23.77;;;9.85;;
72517;SDS011;60540;51.178;6.738;2023-11-21T07:20:49;25.02;;;10.90;;
72517;SDS011;60540;51.178;6.738;2023-11-21T07:23:14;25.30;;;10.32;;
72517;SDS011;60540;51.178;6.738;2023-11-21T07:25:41;25.17;;;10.25;;
72517;SDS011;60540;51.178;6.738;2023-11-21T07:28:08;26.02;;;10.10;;
72517;SDS011;60540;51.178;6.738;2023-11-21T07:30:35;25.90;;;11.65;;
72517;SDS011;60540;51.178;6.738;2023-11-21T07:33:00;24.75;;;10.40;;
72517;SDS011;60540;51.178;6.738;2023-11-21T07:35:26;26.77;;;11.00;;
72517;SDS011;60540;51.178;6.738;2023-11-21T07:37:52;24.77;;;10.65;;
72517;SDS011;60540;51.178;6.738;2023-11-21T07:40:18;22.30;;;9.70;;
72517;SDS011;60540;51.178;6.738;2023-11-21T07:42:43;25.67;;;10.25;;
72517;SDS011;60540;51.178;6.738;2023-11-21T07:45:09;27.25;;;10.70;;
72517;SDS011;60540;51.178;6.738;2023-11-21T07:47:35;27.50;;;11.43;;
72517;SDS011;60540;51.178;6.738;2023-11-21T07:50:04;27.20;;;11.10;;
72517;SDS011;60540;51.178;6.738;2023-11-21T07:52:30;29.65;;;12.10;;
72517;SDS011;60540;51.178;6.738;2023-11-21T07:54:56;26.38;;;10.73;;
72517;SDS011;60540;51.178;6.738;2023-11-21T07:57:21;25.25;;;10.40;;
72517;SDS011;60540;51.178;6.738;2023-11-21T07:59:47;24.42;;;10.23;;
72517;SDS011;60540;51.178;6.738;2023-11-21T08:02:13;24.45;;;10.60;;
72517;SDS011;60540;51.178;6.738;2023-11-21T08:04:40;26.27;;;10.85;;
72517;SDS011;60540;51.178;6.738;2023-11-21T08:07:05;24.23;;;10.43;;
72517;SDS011;60540;51.178;6.738;2023-11-21T08:09:31;24.75;;;11.35;;
72517;SDS011;60540;51.178;6.738;2023-11-21T08:11:57;27.58;;;10.82;;
72517;SDS011;60540;51.178;6.738;2023-11-21T08:14:23;25.83;;;10.57;;
72517;SDS011;60540;51.178;6.738;2023-11-21T08:16:50;27.92;;;12.65;;
72517;SDS011;60540;51.178;6.738;2023-11-21T08:19:16;29.80;;;12.75;;
72517;SDS011;60540;51.178;6.738;2023-11-21T08:21:43;29.58;;;11.77;;
72517;SDS011;60540;51.178;6.738;2023-11-21T08:24:10;30.33;;;13.25;;
72517;SDS011;60540;51.178;6.738;2023-11-21T08:26:39;27.25;;;11.05;;
72517;SDS011;60540;51.178;6.738;2023-11-21T08:29:06;32.13;;;11.48;;
72517;SDS011;60540;51.178;6.738;2023-11-21T08:31:35;30.05;;;12.10;;
72517;SDS011;60540;51.178;6.738;2023-11-21T08:34:01;33.70;;;12.20;;
72517;SDS011;60540;51.178;6.738;2023-11-21T08:36:51;34.17;;;13.25;;
72517;SDS011;60540;51.178;6.738;2023-11-21T08:39:17;37.30;;;13.63;;
72517;SDS011;60540;51.178;6.738;2023-11-21T08:41:44;29.77;;;12.50;;
72517;SDS011;60540;51.178;6.738;2023-11-21T08:44:10;30.95;;;13.43;;
72517;SDS011;60540;51.178;6.738;2023-11-21T08:46:37;30.63;;;11.95;;
72517;SDS011;60540;51.178;6.738;2023-11-21T08:49:04;27.65;;;11.45;;
72517;SDS011;60540;51.178;6.738;2023-11-21T08:51:31;32.35;;;11.85;;
72517;SDS011;60540;51.178;6.738;2023-11-21T08:53:57;27.55;;;9.85;;
72517;SDS011;60540;51.178;6.738;2023-11-21T08:56:25;30.02;;;13.00;;
72517;SDS011;60540;51.178;6.738;2023-11-21T08:58:50;27.25;;;9.93;;
72517;SDS011;60540;51.178;6.738;2023-11-21T09:01:16;28.13;;;10.77;;
72517;SDS011;60540;51.178;6.738;2023-11-21T09:03:42;25.35;;;11.05;;
72517;SDS011;60540;51.178;6.738;2023-11-21T09:06:09;25.73;;;11.10;;
72517;SDS011;60540;51.178;6.738;2023-11-21T09:08:35;29.38;;;11.18;;
72517;SDS011;60540;51.178;6.738;2023-11-21T09:11:01;30.27;;;11.70;;
72517;SDS011;60540;51.178;6.738;2023-11-21T09:13:28;30.27;;;12.07;;
72517;SDS011;60540;51.178;6.738;2023-11-21T09:18:20;27.55;;;11.07;;
72517;SDS011;60540;51.178;6.738;2023-11-21T09:20:46;24.60;;;9.77;;
72517;SDS011;60540;51.178;6.738;2023-11-21T09:23:12;28.63;;;11.05;;
72517;SDS011;60540;51.178;6.738;2023-11-21T09:25:37;25.85;;;10.18;;
72517;SDS011;60540;51.178;6.738;2023-11-21T09:28:04;27.88;;;10.43;;
72517;SDS011;60540;51.178;6.738;2023-11-21T09:30:34;33.47;;;13.50;;
72517;SDS011;60540;51.178;6.738;2023-11-21T09:33:01;27.40;;;10.85;;
72517;SDS011;60540;51.178;6.738;2023-11-21T09:35:27;24.25;;;11.10;;
72517;SDS011;60540;51.178;6.738;2023-11-21T09:37:53;28.85;;;10.60;;
72517;SDS011;60540;51.178;6.738;2023-11-21T09:40:22;28.45;;;10.88;;
72517;SDS011;60540;51.178;6.738;2023-11-21T09:45:28;27.45;;;10.13;;
72517;SDS011;60540;51.178;6.738;2023-11-21T09:47:56;26.38;;;11.55;;
72517;SDS011;60540;51.178;6.738;2023-11-21T09:50:23;31.02;;;11.23;;
72517;SDS011;60540;51.178;6.738;2023-11-21T09:55:22;29.98;;;11.45;;
72517;SDS011;60540;51.178;6.738;2023-11-21T09:57:51;27.52;;;10.45;;
72517;SDS011;60540;51.178;6.738;2023-11-21T10:00:18;32.67;;;11.60;;
72517;SDS011;60540;51.178;6.738;2023-11-21T10:02:46;28.63;;;11.82;;
72517;SDS011;60540;51.178;6.738;2023-11-21T10:05:15;32.80;;;11.75;;
72517;SDS011;60540;51.178;6.738;2023-11-21T10:07:45;26.42;;;10.85;;
72517;SDS011;60540;51.178;6.738;2023-11-21T10:10:12;27.73;;;10.43;;
72517;SDS011;60540;51.178;6.738;2023-11-21T10:12:39;32.45;;;10.60;;
72517;SDS011;60540;51.178;6.738;2023-11-21T10:15:07;25.45;;;10.35;;
72517;SDS011;60540;51.178;6.738;2023-11-21T10:17:36;26.75;;;9.60;;
72517;SDS011;60540;51.178;6.738;2023-11-21T10:20:08;29.42;;;10.35;;
72517;SDS011;60540;51.178;6.738;2023-11-21T10:22:38;29.42;;;10.80;;
72517;SDS011;60540;51.178;6.738;2023-11-21T10:25:06;29.88;;;11.10;;
72517;SDS011;60540;51.178;6.738;2023-11-21T10:27:37;32.15;;;10.82;;
72517;SDS011;60540;51.178;6.738;2023-11-21T10:30:06;28.55;;;9.70;;
72517;SDS011;60540;51.178;6.738;2023-11-21T10:32:39;25.85;;;10.57;;
72517;SDS011;60540;51.178;6.738;2023-11-21T10:37:41;26.05;;;9.15;;
72517;SDS011;60540;51.178;6.738;2023-11-21T10:42:40;30.90;;;10.20;;
72517;SDS011;60540;51.178;6.738;2023-11-21T10:45:07;24.30;;;10.02;;
72517;SDS011;60540;51.178;6.738;2023-11-21T10:50:09;27.52;;;10.02;;
72517;SDS011;60540;51.178;6.738;2023-11-21T10:52:37;26.13;;;10.63;;
72517;SDS011;60540;51.178;6.738;2023-11-21T10:55:25;28.38;;;10.80;;
72517;SDS011;60540;51.178;6.738;2023-11-21T10:57:52;22.77;;;9.45;;
72517;SDS011;60540;51.178;6.738;2023-11-21T11:00:19;26.02;;;11.07;;
72517;SDS011;60540;51.178;6.738;2023-11-21T11:02:52;26.58;;;10.32;;
72517;SDS011;60540;51.178;6.738;2023-11-21T11:05:21;27.40;;;10.77;;
72517;SDS011;60540;51.178;6.738;2023-11-21T11:07:56;21.83;;;10.63;;
72517;SDS011;60540;51.178;6.738;2023-11-21T11:10:30;27.02;;;10.25;;
72517;SDS011;60540;51.178;6.738;2023-11-21T11:12:56;21.08;;;8.85;;
72517;SDS011;60540;51.178;6.738;2023-11-21T11:15:23;22.73;;;9.48;;
72517;SDS011;60540;51.178;6.738;2023-11-21T11:17:49;21.02;;;8.82;;
72517;SDS011;60540;51.178;6.738;2023-11-21T11:20:16;22.33;;;9.05;;
72517;SDS011;60540;51.178;6.738;2023-11-21T11:25:33;22.52;;;9.75;;
72517;SDS011;60540;51.178;6.738;2023-11-21T11:28:04;23.15;;;9.93;;
72517;SDS011;60540;51.178;6.738;2023-11-21T11:33:13;21.80;;;9.07;;
72517;SDS011;60540;51.178;6.738;2023-11-21T11:38:22;23.10;;;9.13;;
72517;SDS011;60540;51.178;6.738;2023-11-21T11:40:54;20.20;;;8.98;;
72517;SDS011;60540;51.178;6.738;2023-11-21T11:43:26;23.08;;;9.70;;
72517;SDS011;60540;51.178;6.738;2023-11-21T11:45:55;25.65;;;10.13;;
72517;SDS011;60540;51.178;6.738;2023-11-21T11:48:22;25.20;;;9.90;;
72517;SDS011;60540;51.178;6.738;2023-11-21T11:51:07;24.80;;;10.00;;
72517;SDS011;60540;51.178;6.738;2023-11-21T11:53:47;20.00;;;8.70;;
72517;SDS011;60540;51.178;6.738;2023-11-21T11:56:29;24.25;;;10.80;;
72517;SDS011;60540;51.178;6.738;2023-11-21T11:58:58;22.00;;;8.65;;
72517;SDS011;60540;51.178;6.738;2023-11-21T12:01:25;24.58;;;10.23;;
72517;SDS011;60540;51.178;6.738;2023-11-21T12:06:36;19.98;;;8.68;;
72517;SDS011;60540;51.178;6.738;2023-11-21T12:09:02;22.50;;;8.60;;
72517;SDS011;60540;51.178;6.738;2023-11-21T12:11:30;19.73;;;7.65;;
72517;SDS011;60540;51.178;6.738;2023-11-21T12:16:24;23.08;;;8.27;;
72517;SDS011;60540;51.178;6.738;2023-11-21T12:18:53;21.70;;;8.35;;
72517;SDS011;60540;51.178;6.738;2023-11-21T12:21:22;21.38;;;8.30;;
72517;SDS011;60540;51.178;6.738;2023-11-21T12:23:48;21.40;;;8.82;;
72517;SDS011;60540;51.178;6.738;2023-11-21T12:26:13;21.30;;;8.35;;
72517;SDS011;60540;51.178;6.738;2023-11-21T12:28:39;20.45;;;8.10;;
72517;SDS011;60540;51.178;6.738;2023-11-21T12:31:05;23.05;;;8.10;;
72517;SDS011;60540;51.178;6.738;2023-11-21T12:33:35;23.70;;;9.35;;
72517;SDS011;60540;51.178;6.738;2023-11-21T12:36:00;20.27;;;8.35;;
72517;SDS011;60540;51.178;6.738;2023-11-21T12:38:33;22.38;;;10.50;;
72517;SDS011;60540;51.178;6.738;2023-11-21T12:41:00;19.42;;;7.43;;
72517;SDS011;60540;51.178;6.738;2023-11-21T12:43:26;17.20;;;7.20;;
72517;SDS011;60540;51.178;6.738;2023-11-21T12:46:04;21.92;;;8.32;;
72517;SDS011;60540;51.178;6.738;2023-11-21T12:48:33;23.77;;;8.90;;
72517;SDS011;60540;51.178;6.738;2023-11-21T12:50:59;21.67;;;8.95;;
72517;SDS011;60540;51.178;6.738;2023-11-21T12:53:26;19.00;;;9.52;;
72517;SDS011;60540;51.178;6.738;2023-11-21T12:55:51;19.98;;;9.20;;
72517;SDS011;60540;51.178;6.738;2023-11-21T12:58:17;23.63;;;8.85;;
72517;SDS011;60540;51.178;6.738;2023-11-21T13:00:46;18.63;;;8.13;;
72517;SDS011;60540;51.178;6.738;2023-11-21T13:03:13;20.77;;;8.88;;
72517;SDS011;60540;51.178;6.738;2023-11-21T13:05:43;19.67;;;8.77;;
72517;SDS011;60540;51.178;6.738;2023-11-21T13:08:11;20.35;;;8.80;;
72517;SDS011;60540;51.178;6.738;2023-11-21T13:10:39;21.08;;;9.00;;
72517;SDS011;60540;51.178;6.738;2023-11-21T13:13:09;20.00;;;7.93;;
72517;SDS011;60540;51.178;6.738;2023-11-21T13:15:47;21.60;;;8.48;;
72517;SDS011;60540;51.178;6.738;2023-11-21T13:18:13;20.17;;;8.43;;
72517;SDS011;60540;51.178;6.738;2023-11-21T13:20:40;22.30;;;9.88;;
72517;SDS011;60540;51.178;6.738;2023-11-21T13:25:37;22.73;;;8.25;;
72517;SDS011;60540;51.178;6.738;2023-11-21T13:28:06;23.50;;;9.27;;
72517;SDS011;60540;51.178;6.738;2023-11-21T13:30:32;18.75;;;8.30;;
72517;SDS011;60540;51.178;6.738;2023-11-21T13:33:01;21.30;;;8.43;;
72517;SDS011;60540;51.178;6.738;2023-11-21T13:35:30;22.08;;;8.80;;
72517;SDS011;60540;51.178;6.738;2023-11-21T13:38:03;21.23;;;8.27;;
72517;SDS011;60540;51.178;6.738;2023-11-21T13:40:31;19.40;;;7.68;;
72517;SDS011;60540;51.178;6.738;2023-11-21T13:43:00;21.55;;;7.90;;
72517;SDS011;60540;51.178;6.738;2023-11-21T13:45:29;16.85;;;8.73;;
72517;SDS011;60540;51.178;6.738;2023-11-21T13:47:56;16.05;;;7.45;;
72517;SDS011;60540;51.178;6.738;2023-11-21T13:50:24;16.65;;;7.65;;
72517;SDS011;60540;51.178;6.738;2023-11-21T13:52:55;16.35;;;7.57;;
72517;SDS011;60540;51.178;6.738;2023-11-21T13:55:21;20.77;;;7.97;;
72517;SDS011;60540;51.178;6.738;2023-11-21T13:57:50;20.15;;;6.90;;
72517;SDS011;60540;51.178;6.738;2023-11-21T14:00:18;17.33;;;8.10;;
72517;SDS011;60540;51.178;6.738;2023-11-21T14:05:33;16.98;;;8.02;;
72517;SDS011;60540;51.178;6.738;2023-11-21T14:08:00;19.95;;;8.75;;
72517;SDS011;60540;51.178;6.738;2023-11-21T14:10:30;22.10;;;8.80;;
72517;SDS011;60540;51.178;6.738;2023-11-21T14:13:16;21.83;;;9.73;;
72517;SDS011;60540;51.178;6.738;2023-11-21T14:18:12;24.65;;;9.45;;
72517;SDS011;60540;51.178;6.738;2023-11-21T14:20:42;22.75;;;11.05;;
72517;SDS011;60540;51.178;6.738;2023-11-21T14:23:08;30.80;;;11.70;;
72517;SDS011;60540;51.178;6.738;2023-11-21T14:25:36;26.38;;;11.75;;
72517;SDS011;60540;51.178;6.738;2023-11-21T14:28:03;34.35;;;14.23;;
72517;SDS011;60540;51.178;6.738;2023-11-21T14:30:29;35.00;;;13.98;;
72517;SDS011;60540;51.178;6.738;2023-11-21T14:33:00;33.70;;;14.50;;
72517;SDS011;60540;51.178;6.738;2023-11-21T14:35:26;37.20;;;15.23;;
72517;SDS011;60540;51.178;6.738;2023-11-21T14:37:52;35.92;;;13.65;;
72517;SDS011;60540;51.178;6.738;2023-11-21T14:40:19;28.27;;;13.10;;
72517;SDS011;60540;51.178;6.738;2023-11-21T14:42:50;27.27;;;11.32;;
72517;SDS011;60540;51.178;6.738;2023-11-21T14:45:18;21.70;;;10.10;;
72517;SDS011;60540;51.178;6.738;2023-11-21T14:47:46;21.45;;;9.32;;
72517;SDS011;60540;51.178;6.738;2023-11-21T14:50:21;21.30;;;9.38;;
72517;SDS011;60540;51.178;6.738;2023-11-21T14:53:09;20.55;;;8.02;;
72517;SDS011;60540;51.178;6.738;2023-11-21T14:55:36;19.85;;;7.75;;
72517;SDS011;60540;51.178;6.738;2023-11-21T14:58:04;16.10;;;6.55;;
72517;SDS011;60540;51.178;6.738;2023-11-21T15:00:30;12.68;;;6.10;;
72517;SDS011;60540;51.178;6.738;2023-11-21T15:03:03;15.35;;;6.13;;
72517;SDS011;60540;51.178;6.738;2023-11-21T15:05:30;10.75;;;6.05;;
72517;SDS011;60540;51.178;6.738;2023-11-21T15:07:56;11.35;;;5.72;;
72517;SDS011;60540;51.178;6.738;2023-11-21T15:10:33;12.18;;;4.95;;
72517;SDS011;60540;51.178;6.738;2023-11-21T15:13:13;12.65;;;5.70;;
72517;SDS011;60540;51.178;6.738;2023-11-21T15:15:40;12.88;;;5.85;;